Observations for BOURNEMOUTH AIRPORT, United Kingdom (EGHH)

EGHH 130850Z 12015G25KT 9999 BKN027 06/00 Q1013 
EGHH 130820Z 12017KT 9999 BKN027 06/00 Q1013
EGHH 130750Z 12018G29KT 9999 BKN027 06/00 Q1013 
EGHH 130720Z 12017KT 9999 BKN027 06/01 Q1013
EGHH 130650Z 13015KT 9999 BKN027 06/01 Q1012
EGHH 130620Z 12016KT 090V160 9999 BKN029 06/00 Q1012
EGHH 130550Z 13019KT 9999 FEW030 SCT036 06/00 Q1012 
EGHH 122120Z 14018KT 9999 BKN036 07/M00 Q1016   
EGHH 122050Z 14017KT 9999 BKN033 07/M00 Q1016   
EGHH 121950Z 14017KT 9999 SCT032 07/M00 Q1017   
EGHH 121920Z 13016KT 9999 BKN030 07/00 Q1017
EGHH 121850Z 14015G26KT 9999 BKN029 07/01 Q1017 
EGHH 121820Z 13018KT 060V160 9999 BKN027 07/00 Q1018
EGHH 121750Z 13011KT 9999 BKN026 07/01 Q1018
EGHH 121720Z 12012KT 9999 BKN024 07/02 Q1018
EGHH 121650Z 13014KT 9999 BKN024 07/02 Q1018
EGHH 121620Z 13014KT 9999 BKN024 08/02 Q1018
EGHH 121550Z 12010KT 9999 BKN026 08/02 Q1018
EGHH 121520Z 12011KT 9999 BKN029 08/02 Q1019
EGHH 121450Z 13011KT 9999 BKN025 SCT039 08/02 Q1019 
EGHH 121420Z 14011KT 9999 FEW025 BKN033 08/03 Q1019 
EGHH 121350Z 13013KT 9999 FEW026 SCT032 08/02 Q1019 
EGHH 121320Z 13013KT 9999 FEW026 BKN032 08/03 Q1019 
EGHH 121250Z 13013KT 9999 FEW026 BKN030 09/03 Q1020 
EGHH 121220Z 14014KT 9999 FEW012 BKN031 09/03 Q1020 
EGHH 121150Z 14014KT 9999 FEW027 BKN031 09/03 Q1020 
EGHH 121120Z 15014KT 110V180 9999 FEW026 BKN032 09/03 Q1020 
EGHH 121050Z 14012KT 9999 BKN025 09/04 Q1021
EGHH 121020Z 14013KT 110V170 9999 BKN021 SCT032 09/04 Q1021 
EGHH 120950Z 15014KT 110V170 9999 SCT022 09/04 Q1020
EGHH 120920Z 14014KT 9999 FEW021 09/04 Q1020
EGHH 120850Z 14012KT 9999 FEW023 08/04 Q1020
EGHH 120820Z 15012KT 9999 FEW023 08/04 Q1020